createdAt,value
2018-11-29T00:00:10.619Z,42.87
2018-11-29T00:02:12.659Z,50.63
2018-11-29T00:04:14.655Z,50.40
2018-11-29T00:06:16.646Z,46.33
2018-11-29T00:08:18.630Z,39.80
2018-11-29T00:10:20.619Z,42.93
2018-11-29T00:12:22.606Z,46.30
2018-11-29T00:14:24.599Z,43.43
2018-11-29T00:16:26.587Z,47.13
2018-11-29T00:18:35.367Z,46.30
2018-11-29T00:20:37.354Z,46.20
2018-11-29T00:22:39.607Z,50.13
2018-11-29T00:24:41.591Z,50.90
2018-11-29T00:26:43.590Z,47.17
2018-11-29T00:28:45.570Z,44.97
2018-11-29T00:30:47.559Z,45.93
2018-11-29T00:32:50.426Z,42.60
2018-11-29T00:34:52.419Z,49.33
2018-11-29T00:36:54.410Z,51.27
2018-11-29T00:38:56.395Z,45.60
2018-11-29T00:40:58.379Z,49.90
2018-11-29T00:43:00.368Z,44.80
2018-11-29T00:45:02.411Z,44.17
2018-11-29T00:47:04.650Z,51.23
2018-11-29T00:49:06.630Z,49.20
2018-11-29T00:51:08.623Z,48.20
2018-11-29T00:53:10.611Z,47.70
2018-11-29T00:55:21.435Z,50.80
2018-11-29T00:57:23.426Z,50.70
2018-11-29T00:59:25.415Z,46.10
2018-11-29T01:01:27.406Z,57.03
2018-11-29T01:03:29.386Z,47.83
2018-11-29T01:05:31.384Z,47.70
2018-11-29T01:07:33.370Z,47.40
2018-11-29T01:09:35.356Z,52.90
2018-11-29T01:11:37.351Z,51.37
2018-11-29T01:13:39.335Z,48.63
2018-11-29T01:15:41.327Z,49.93
2018-11-29T01:17:43.967Z,47.33
2018-11-29T01:19:45.959Z,52.77
2018-11-29T01:21:47.946Z,55.13
2018-11-29T01:23:49.927Z,47.77
2018-11-29T01:25:51.937Z,51.07
2018-11-29T01:27:53.924Z,51.07
2018-11-29T01:29:55.913Z,50.07
2018-11-29T01:31:57.913Z,45.37
2018-11-29T01:33:59.898Z,53.07
2018-11-29T01:36:01.895Z,51.57
2018-11-29T01:38:03.967Z,46.40
2018-11-29T01:40:16.059Z,51.40
2018-11-29T01:42:18.050Z,40.17
2018-11-29T01:44:20.035Z,48.30
2018-11-29T01:46:22.031Z,52.40
2018-11-29T01:48:24.010Z,44.43
2018-11-29T01:50:25.995Z,43.00
2018-11-29T01:52:27.982Z,46.13
2018-11-29T01:54:29.971Z,44.40
2018-11-29T01:56:31.958Z,49.30
2018-11-29T01:58:33.958Z,46.77
2018-11-29T02:00:35.943Z,56.77
2018-11-29T02:02:37.936Z,45.87
2018-11-29T02:04:39.927Z,47.73
2018-11-29T02:06:41.939Z,42.43
2018-11-29T02:08:43.923Z,52.63
2018-11-29T02:10:50.462Z,49.07
2018-11-29T02:12:52.635Z,56.40
2018-11-29T02:14:54.619Z,47.23
2018-11-29T02:16:56.611Z,46.60
2018-11-29T02:18:58.594Z,44.03
2018-11-29T02:21:00.587Z,43.87
2018-11-29T02:23:02.584Z,46.90
2018-11-29T02:25:05.431Z,46.80
2018-11-29T02:27:07.423Z,46.60
2018-11-29T02:29:09.406Z,45.30
2018-11-29T02:31:11.395Z,47.50
2018-11-29T02:33:13.386Z,46.53
2018-11-29T02:35:15.516Z,53.73
2018-11-29T02:37:17.528Z,49.40
2018-11-29T02:39:19.542Z,45.00
2018-11-29T02:41:21.531Z,43.53
2018-11-29T02:43:23.541Z,49.03
2018-11-29T02:45:25.539Z,46.80
2018-11-29T02:47:27.554Z,48.77
2018-11-29T02:49:29.538Z,44.97
2018-11-29T02:51:31.526Z,42.37
2018-11-29T02:53:33.520Z,36.33
2018-11-29T02:55:35.508Z,50.13
2018-11-29T02:57:37.573Z,41.33
2018-11-29T02:59:39.561Z,45.07
2018-11-29T03:01:41.556Z,37.90
2018-11-29T03:03:43.543Z,46.57
2018-11-29T03:05:45.528Z,43.50
2018-11-29T03:07:47.519Z,46.93
2018-11-29T03:09:49.532Z,44.23
2018-11-29T03:11:51.529Z,42.70
2018-11-29T03:13:53.527Z,50.60
2018-11-29T03:15:55.515Z,37.87
2018-11-29T03:17:57.516Z,43.90
2018-11-29T03:19:59.503Z,43.67
2018-11-29T03:22:01.479Z,40.07
2018-11-29T03:24:03.467Z,45.17
2018-11-29T03:26:05.595Z,49.67
2018-11-29T03:28:07.590Z,43.80
2018-11-29T03:30:10.651Z,37.97
2018-11-29T03:32:12.643Z,43.53
2018-11-29T03:34:14.641Z,47.57
2018-11-29T03:36:16.643Z,41.37
2018-11-29T03:38:18.651Z,43.53
2018-11-29T03:40:20.638Z,44.60
2018-11-29T03:42:22.623Z,46.77
2018-11-29T03:44:24.618Z,43.63
2018-11-29T03:46:26.607Z,44.17
2018-11-29T03:48:28.618Z,43.67
2018-11-29T03:50:30.607Z,35.73
2018-11-29T03:52:32.591Z,41.50
2018-11-29T03:54:34.591Z,45.17
2018-11-29T03:56:36.579Z,35.40
2018-11-29T03:58:38.583Z,44.80
2018-11-29T04:00:40.566Z,42.70
2018-11-29T04:02:43.113Z,41.23
2018-11-29T04:04:45.099Z,46.27
2018-11-29T04:06:47.095Z,44.60
2018-11-29T04:08:49.160Z,40.70
2018-11-29T04:10:51.162Z,39.00
2018-11-29T04:12:53.156Z,52.17
2018-11-29T04:14:55.159Z,41.60
2018-11-29T04:16:57.160Z,44.10
2018-11-29T04:18:59.148Z,46.67
2018-11-29T04:21:01.148Z,40.97
2018-11-29T04:23:03.140Z,46.57
2018-11-29T04:25:06.312Z,40.00
2018-11-29T04:27:08.307Z,40.30
2018-11-29T04:29:10.322Z,48.97
2018-11-29T04:31:12.312Z,38.50
2018-11-29T04:33:14.308Z,45.30
2018-11-29T04:35:16.318Z,36.07
2018-11-29T04:37:18.311Z,36.13
2018-11-29T04:39:20.304Z,49.30
2018-11-29T04:41:22.295Z,44.00
2018-11-29T04:43:24.288Z,45.63
2018-11-29T04:45:36.671Z,37.67
2018-11-29T04:47:38.663Z,47.30
2018-11-29T04:49:40.983Z,50.23
2018-11-29T04:51:42.979Z,47.57
2018-11-29T04:53:52.055Z,48.57
2018-11-29T04:55:54.052Z,48.10
2018-11-29T04:57:56.066Z,40.87
2018-11-29T04:59:58.083Z,46.03
2018-11-29T05:02:00.076Z,43.57
2018-11-29T05:04:02.112Z,40.33
2018-11-29T05:06:04.435Z,40.67
2018-11-29T05:08:06.427Z,45.73
2018-11-29T05:10:09.783Z,35.70
2018-11-29T05:12:11.772Z,42.67
2018-11-29T05:14:13.767Z,38.90
2018-11-29T05:16:15.801Z,41.63
2018-11-29T05:18:17.793Z,37.87
2018-11-29T05:20:19.800Z,37.47
2018-11-29T05:22:21.796Z,36.27
2018-11-29T05:24:23.783Z,43.10
2018-11-29T05:26:25.783Z,41.47
2018-11-29T05:28:27.781Z,35.90
2018-11-29T05:30:29.780Z,45.50
2018-11-29T05:32:31.775Z,38.93
2018-11-29T05:34:33.771Z,31.00
2018-11-29T05:36:35.779Z,34.30
2018-11-29T05:38:44.587Z,29.73
2018-11-29T05:40:46.589Z,40.20
2018-11-29T05:42:48.636Z,44.17
2018-11-29T05:44:50.636Z,49.93
2018-11-29T05:46:52.636Z,44.37
2018-11-29T05:48:54.640Z,41.57
2018-11-29T05:50:56.632Z,43.40
2018-11-29T05:52:58.636Z,45.50
2018-11-29T05:55:00.640Z,41.60
2018-11-29T05:57:02.639Z,51.93
2018-11-29T05:59:05.516Z,46.07
2018-11-29T06:01:11.887Z,46.70
2018-11-29T06:03:13.881Z,49.70
2018-11-29T06:05:15.883Z,56.90
2018-11-29T06:07:17.884Z,57.67
2018-11-29T06:09:19.885Z,58.23
2018-11-29T06:11:21.892Z,54.83
2018-11-29T06:13:23.880Z,53.83
2018-11-29T06:15:25.901Z,54.07
2018-11-29T06:17:27.892Z,56.33
2018-11-29T06:19:29.884Z,61.00
2018-11-29T06:21:31.875Z,51.83
2018-11-29T06:23:33.880Z,56.10
2018-11-29T06:25:35.878Z,57.77
2018-11-29T06:27:37.903Z,55.17
2018-11-29T06:29:39.899Z,53.80
2018-11-29T06:31:41.904Z,57.23
2018-11-29T06:33:43.927Z,51.67
2018-11-29T06:35:45.928Z,58.50
2018-11-29T06:37:47.919Z,102.47
2018-11-29T06:39:49.908Z,63.07
2018-11-29T06:41:51.907Z,66.43
2018-11-29T06:43:53.899Z,53.80
2018-11-29T06:45:55.903Z,60.27
2018-11-29T06:47:57.896Z,57.03
2018-11-29T06:49:59.886Z,55.30
2018-11-29T06:52:01.907Z,56.20
2018-11-29T06:54:04.380Z,52.83
2018-11-29T06:56:06.375Z,55.17
2018-11-29T06:58:08.367Z,52.90
2018-11-29T07:00:23.807Z,51.60
2018-11-29T07:02:25.803Z,53.07
2018-11-29T07:04:27.787Z,51.27
2018-11-29T07:06:29.792Z,49.57
2018-11-29T07:08:31.787Z,51.47
2018-11-29T07:10:34.520Z,64.20
2018-11-29T07:12:37.628Z,55.27
2018-11-29T07:14:39.620Z,57.33
2018-11-29T07:16:41.627Z,47.93
2018-11-29T07:18:43.615Z,51.07
2018-11-29T07:21:53.871Z,51.17
2018-11-29T07:23:55.868Z,56.40
2018-11-29T07:25:57.857Z,50.00
2018-11-29T07:27:59.857Z,50.23
2018-11-29T07:30:02.055Z,52.97
2018-11-29T07:32:04.791Z,51.60
2018-11-29T07:34:08.766Z,49.37
2018-11-29T07:36:10.764Z,47.90
2018-11-29T07:38:12.759Z,56.83
2018-11-29T07:40:17.995Z,48.63
2018-11-29T07:42:19.984Z,51.30
2018-11-29T07:44:22.011Z,48.30
2018-11-29T07:46:23.999Z,55.10
2018-11-29T07:48:25.983Z,49.37
2018-11-29T07:50:27.955Z,36.87
2018-11-29T07:52:29.948Z,44.60
2018-11-29T07:54:31.944Z,45.30
2018-11-29T07:56:33.936Z,52.60
2018-11-29T07:58:35.927Z,46.30
2018-11-29T08:00:37.956Z,45.67
2018-11-29T08:02:39.972Z,46.57
2018-11-29T08:04:41.964Z,44.60
2018-11-29T08:06:43.975Z,48.87
2018-11-29T08:08:45.983Z,49.80
2018-11-29T08:10:47.976Z,43.33
2018-11-29T08:12:49.974Z,48.87
2018-11-29T08:14:51.984Z,46.07
2018-11-29T08:16:54.016Z,55.10
2018-11-29T08:18:56.031Z,52.87
2018-11-29T08:20:58.020Z,61.80
2018-11-29T08:23:00.020Z,51.60
2018-11-29T08:25:02.020Z,51.83
2018-11-29T08:27:04.035Z,50.50
2018-11-29T08:29:06.060Z,50.23
2018-11-29T08:31:08.052Z,48.67
2018-11-29T08:33:10.076Z,55.20
2018-11-29T08:35:13.088Z,51.20
2018-11-29T08:37:15.127Z,44.97
2018-11-29T08:39:17.403Z,54.20
2018-11-29T08:41:19.392Z,50.50
2018-11-29T08:43:21.383Z,57.93
2018-11-29T08:45:23.384Z,48.20
2018-11-29T08:47:25.377Z,42.87
2018-11-29T08:49:27.376Z,51.43
2018-11-29T08:51:29.367Z,52.97
2018-11-29T08:53:31.360Z,47.50
2018-11-29T08:55:33.368Z,48.70
2018-11-29T08:57:35.383Z,47.93
2018-11-29T08:59:37.384Z,43.27
2018-11-29T09:01:39.396Z,48.63
2018-11-29T09:03:41.384Z,49.90
2018-11-29T09:05:43.384Z,48.70
2018-11-29T09:07:46.261Z,44.83
2018-11-29T09:09:48.258Z,33.47
2018-11-29T09:11:50.253Z,48.57
2018-11-29T09:13:52.244Z,48.37
2018-11-29T09:15:54.231Z,42.43
2018-11-29T09:17:56.280Z,36.37
2018-11-29T09:19:58.301Z,44.13
2018-11-29T09:22:00.291Z,37.40
2018-11-29T09:24:02.284Z,41.50
2018-11-29T09:26:04.926Z,43.57
2018-11-29T09:28:06.919Z,51.93
2018-11-29T09:30:17.520Z,44.50
2018-11-29T09:32:19.504Z,40.07
2018-11-29T09:34:21.499Z,40.60
2018-11-29T09:36:23.536Z,41.30
2018-11-29T09:38:25.529Z,44.07
2018-11-29T09:40:27.524Z,39.73
2018-11-29T09:42:29.516Z,46.23
2018-11-29T09:44:31.540Z,46.33
2018-11-29T09:46:33.544Z,39.13
2018-11-29T09:48:35.532Z,45.70
2018-11-29T09:50:37.532Z,42.43
2018-11-29T09:52:39.897Z,49.40
2018-11-29T09:54:41.884Z,38.03
2018-11-29T09:56:43.880Z,45.20
2018-11-29T09:58:45.877Z,38.70
2018-11-29T10:00:47.887Z,50.30
2018-11-29T10:02:53.796Z,30.20
2018-11-29T10:04:55.798Z,40.07
2018-11-29T10:06:57.804Z,47.10
2018-11-29T10:08:59.800Z,48.30
2018-11-29T10:11:01.800Z,48.57
2018-11-29T10:13:03.834Z,43.87
2018-11-29T10:15:10.399Z,51.00
2018-11-29T10:17:12.393Z,43.07
2018-11-29T10:19:14.380Z,42.30
2018-11-29T10:21:16.371Z,41.83
2018-11-29T10:23:18.363Z,43.10
2018-11-29T10:25:20.360Z,44.60
2018-11-29T10:27:22.356Z,45.90
2018-11-29T10:29:24.351Z,45.77
2018-11-29T10:31:26.346Z,45.93
2018-11-29T10:33:28.598Z,46.33
2018-11-29T10:35:30.589Z,51.70
2018-11-29T10:37:32.588Z,48.10
2018-11-29T10:39:34.572Z,51.50
2018-11-29T10:41:36.568Z,46.67
2018-11-29T10:43:38.559Z,40.17
2018-11-29T10:45:40.551Z,48.73
2018-11-29T10:47:43.756Z,45.07
2018-11-29T10:49:45.748Z,52.17
2018-11-29T10:51:47.747Z,50.07
2018-11-29T10:53:49.734Z,47.50
2018-11-29T10:55:51.876Z,51.63
2018-11-29T10:57:53.868Z,45.67
2018-11-29T10:59:55.880Z,51.90
2018-11-29T11:02:03.836Z,51.00
2018-11-29T11:04:05.832Z,48.70
2018-11-29T11:06:07.819Z,57.53
2018-11-29T11:08:09.807Z,47.27
2018-11-29T11:10:11.803Z,35.43
2018-11-29T11:12:13.804Z,36.30
2018-11-29T11:14:15.792Z,32.67
2018-11-29T11:16:17.788Z,34.53
2018-11-29T11:18:19.795Z,29.63
2018-11-29T11:20:21.788Z,24.77
2018-11-29T11:22:23.788Z,31.47
2018-11-29T11:24:25.776Z,36.30
2018-11-29T11:26:27.756Z,33.23
2018-11-29T11:28:29.747Z,24.40
2018-11-29T11:30:31.779Z,30.33
2018-11-29T11:32:33.831Z,29.23
2018-11-29T11:34:35.826Z,35.30
2018-11-29T11:36:37.819Z,38.57
2018-11-29T11:38:39.815Z,42.33
2018-11-29T11:40:41.807Z,39.53
2018-11-29T11:42:44.655Z,36.47
2018-11-29T11:44:46.643Z,42.60
2018-11-29T11:46:48.640Z,38.97
2018-11-29T11:48:50.640Z,46.73
2018-11-29T11:50:52.631Z,34.90
2018-11-29T11:52:55.045Z,30.23
2018-11-29T11:54:57.048Z,40.93
2018-11-29T11:56:59.034Z,34.17
2018-11-29T11:59:01.035Z,37.83
2018-11-29T12:01:03.024Z,36.00
2018-11-29T12:03:10.165Z,33.37
2018-11-29T12:05:12.160Z,37.50
2018-11-29T12:07:14.164Z,35.90
2018-11-29T12:09:16.160Z,37.60
2018-11-29T12:11:18.156Z,39.33
2018-11-29T12:13:22.948Z,43.07
2018-11-29T12:15:24.945Z,67.00
2018-11-29T12:17:26.951Z,47.87
2018-11-29T12:19:28.948Z,46.67
2018-11-29T12:21:30.943Z,33.70
2018-11-29T12:23:32.943Z,39.80
2018-11-29T12:25:34.933Z,34.50
2018-11-29T12:27:36.948Z,32.37
2018-11-29T12:29:38.943Z,32.73
2018-11-29T12:31:40.945Z,24.10
2018-11-29T12:33:42.940Z,29.50
2018-11-29T12:35:44.970Z,22.83
2018-11-29T12:37:46.960Z,19.77
2018-11-29T12:39:48.956Z,24.37
2018-11-29T12:41:50.948Z,21.23
2018-11-29T12:43:52.944Z,29.80
2018-11-29T12:45:54.944Z,22.93
2018-11-29T12:47:56.940Z,25.70
2018-11-29T12:49:58.935Z,24.27
2018-11-29T12:52:00.940Z,21.90
2018-11-29T12:54:02.936Z,21.30
2018-11-29T12:56:04.919Z,31.07
2018-11-29T12:58:06.911Z,24.43
2018-11-29T13:00:12.048Z,26.00
2018-11-29T13:02:14.040Z,23.80
2018-11-29T13:04:16.040Z,15.77
2018-11-29T13:06:18.030Z,25.93
2018-11-29T13:08:23.015Z,24.17
2018-11-29T13:10:26.065Z,27.30
2018-11-29T13:12:28.059Z,21.30
2018-11-29T13:14:30.048Z,26.40
2018-11-29T13:16:32.080Z,22.10
2018-11-29T13:18:34.072Z,25.20
2018-11-29T13:20:36.091Z,23.20
2018-11-29T13:22:38.089Z,20.20
2018-11-29T13:24:40.085Z,25.57
2018-11-29T13:26:42.102Z,28.10
2018-11-29T13:28:44.104Z,29.43
2018-11-29T13:30:46.093Z,30.90
2018-11-29T13:32:49.144Z,28.70
2018-11-29T13:34:51.126Z,33.30
2018-11-29T13:36:53.124Z,54.77
2018-11-29T13:38:55.156Z,34.40
2018-11-29T13:40:57.135Z,29.27
2018-11-29T13:42:59.128Z,28.23
2018-11-29T13:45:01.131Z,32.60
2018-11-29T13:47:03.128Z,25.63
2018-11-29T13:49:05.212Z,35.43
2018-11-29T13:51:07.209Z,23.90
2018-11-29T13:53:09.205Z,22.37
2018-11-29T13:55:12.072Z,15.70
2018-11-29T13:57:14.072Z,22.90
2018-11-29T13:59:16.072Z,19.00
2018-11-29T14:01:18.059Z,13.43
2018-11-29T14:03:20.053Z,13.80
2018-11-29T14:05:22.048Z,17.23
2018-11-29T14:07:24.049Z,12.27
2018-11-29T14:09:26.047Z,13.00
2018-11-29T14:11:28.032Z,12.10
2018-11-29T14:13:30.029Z,17.03
2018-11-29T14:15:32.028Z,13.97
2018-11-29T14:17:34.048Z,10.30
2018-11-29T14:19:36.055Z,16.90
2018-11-29T14:21:38.048Z,17.40
2018-11-29T14:23:40.040Z,15.67
2018-11-29T14:25:42.038Z,16.20
2018-11-29T14:27:46.028Z,15.23
2018-11-29T14:29:48.025Z,13.60
2018-11-29T14:31:50.100Z,16.53
2018-11-29T14:33:52.031Z,17.67
2018-11-29T14:35:54.039Z,17.40
2018-11-29T14:37:56.027Z,15.97
2018-11-29T14:39:58.015Z,10.80
2018-11-29T14:42:00.018Z,7.97
2018-11-29T14:44:02.013Z,13.77
2018-11-29T14:46:04.285Z,13.33
2018-11-29T14:48:06.286Z,12.83
2018-11-29T14:50:15.652Z,17.47
2018-11-29T14:52:17.700Z,15.87
2018-11-29T14:54:19.700Z,18.73
2018-11-29T14:56:21.694Z,15.80
2018-11-29T14:58:23.684Z,13.17
2018-11-29T15:00:25.683Z,14.30
2018-11-29T15:02:27.672Z,19.00
2018-11-29T15:04:29.668Z,13.80
2018-11-29T15:06:32.268Z,16.00
2018-11-29T15:08:34.268Z,18.43
2018-11-29T15:10:36.895Z,13.30
2018-11-29T15:12:38.885Z,17.23
2018-11-29T15:14:40.884Z,16.00
2018-11-29T15:16:42.880Z,15.70
2018-11-29T15:18:44.871Z,13.83
2018-11-29T15:20:47.617Z,16.50
2018-11-29T15:22:49.608Z,16.50
2018-11-29T15:24:51.605Z,18.60
2018-11-29T15:26:53.591Z,17.10
2018-11-29T15:28:55.587Z,14.93
2018-11-29T15:30:57.592Z,14.83
2018-11-29T15:32:59.580Z,13.30
2018-11-29T15:35:01.587Z,14.07
2018-11-29T15:37:03.572Z,8.87
2018-11-29T15:39:07.040Z,14.47
2018-11-29T15:41:09.035Z,16.23
2018-11-29T15:43:11.026Z,14.90
2018-11-29T15:45:18.871Z,21.60
2018-11-29T15:47:20.804Z,19.93
2018-11-29T15:49:22.793Z,16.70
2018-11-29T15:51:24.783Z,18.40
2018-11-29T15:53:26.772Z,16.33
2018-11-29T15:55:28.767Z,18.33
2018-11-29T15:57:34.778Z,15.50
2018-11-29T15:59:32.751Z,19.00
2018-11-29T16:01:34.752Z,16.50
2018-11-29T16:03:36.742Z,15.30
2018-11-29T16:05:41.173Z,22.60
2018-11-29T16:07:41.055Z,16.10
2018-11-29T16:09:43.040Z,15.80
2018-11-29T16:11:45.035Z,16.47
2018-11-29T16:13:47.011Z,16.20
2018-11-29T16:15:49.017Z,18.47
2018-11-29T16:17:51.671Z,15.70
2018-11-29T16:19:53.660Z,17.77
2018-11-29T16:21:55.722Z,21.00
2018-11-29T16:23:57.655Z,24.67
2018-11-29T16:25:59.652Z,23.83
2018-11-29T16:28:05.179Z,21.60
2018-11-29T16:30:09.688Z,24.90
2018-11-29T16:32:11.949Z,22.60
2018-11-29T16:34:13.940Z,23.13
2018-11-29T16:36:15.953Z,23.97
2018-11-29T16:38:17.959Z,17.50
2018-11-29T16:40:19.955Z,20.87
2018-11-29T16:42:21.945Z,19.70
2018-11-29T16:44:23.939Z,18.20
2018-11-29T16:46:25.940Z,19.27
2018-11-29T16:48:27.928Z,17.53
2018-11-29T16:50:29.935Z,20.07
2018-11-29T16:52:31.923Z,23.53
2018-11-29T16:54:33.916Z,21.50
2018-11-29T16:56:35.895Z,17.83
2018-11-29T16:58:37.879Z,19.83
2018-11-29T17:00:39.945Z,17.47
2018-11-29T17:02:41.899Z,16.50
2018-11-29T17:04:43.888Z,18.53
2018-11-29T17:06:45.881Z,17.00
2018-11-29T17:08:47.875Z,20.30
2018-11-29T17:10:49.872Z,10.03
2018-11-29T17:12:54.191Z,19.90
2018-11-29T17:14:56.192Z,22.50
2018-11-29T17:16:58.200Z,13.70
2018-11-29T17:19:00.187Z,16.60
2018-11-29T17:21:02.185Z,19.30
2018-11-29T17:23:05.343Z,21.83
2018-11-29T17:25:09.427Z,19.80
2018-11-29T17:27:11.555Z,19.57
2018-11-29T17:29:13.609Z,17.70
2018-11-29T17:31:16.091Z,19.00
2018-11-29T17:33:18.113Z,25.03
2018-11-29T17:35:20.096Z,16.47
2018-11-29T17:37:22.091Z,17.40
2018-11-29T17:39:24.084Z,20.33
2018-11-29T17:41:26.084Z,25.07
2018-11-29T17:43:28.068Z,16.93
2018-11-29T17:45:30.270Z,20.30
2018-11-29T17:47:32.315Z,20.13
2018-11-29T17:49:34.313Z,19.20
2018-11-29T17:51:36.335Z,19.77
2018-11-29T17:53:38.331Z,18.70
2018-11-29T17:55:40.321Z,15.50
2018-11-29T17:57:42.316Z,12.10
2018-11-29T17:59:44.837Z,14.20
2018-11-29T18:01:46.884Z,13.00
2018-11-29T18:03:48.871Z,14.10
2018-11-29T18:05:50.863Z,16.60
2018-11-29T18:07:52.855Z,14.17
2018-11-29T18:09:54.852Z,11.77
2018-11-29T18:11:56.835Z,12.90
2018-11-29T18:13:58.832Z,14.50
2018-11-29T18:16:00.836Z,14.63
2018-11-29T18:18:02.831Z,14.20
2018-11-29T18:20:06.340Z,14.50
2018-11-29T18:22:08.355Z,17.93
2018-11-29T18:24:10.348Z,11.53
2018-11-29T18:26:12.343Z,14.00
2018-11-29T18:28:14.339Z,12.60
2018-11-29T18:30:17.323Z,11.50
2018-11-29T18:32:19.320Z,11.53
2018-11-29T18:34:21.313Z,13.90
2018-11-29T18:36:23.679Z,11.67
2018-11-29T18:38:25.323Z,9.90
2018-11-29T18:40:27.308Z,9.60
2018-11-29T18:42:29.300Z,12.90
2018-11-29T18:44:31.300Z,9.93
2018-11-29T18:46:33.288Z,7.63
2018-11-29T18:48:35.280Z,11.90
2018-11-29T18:50:37.536Z,10.13
2018-11-29T18:52:39.535Z,7.87
2018-11-29T18:54:41.527Z,11.80
2018-11-29T18:56:43.516Z,9.23
2018-11-29T18:58:45.516Z,7.70
2018-11-29T19:00:47.503Z,11.80
2018-11-29T19:02:49.504Z,7.73
2018-11-29T19:04:51.495Z,8.60
2018-11-29T19:06:53.495Z,10.07
2018-11-29T19:08:55.497Z,7.90
2018-11-29T19:10:57.493Z,10.63
2018-11-29T19:13:00.724Z,7.30
2018-11-29T19:15:02.939Z,5.33
2018-11-29T19:17:05.364Z,8.90
2018-11-29T19:19:07.357Z,6.93
2018-11-29T19:21:09.355Z,10.37
2018-11-29T19:23:11.338Z,14.07
2018-11-29T19:25:15.343Z,10.20
2018-11-29T19:27:17.336Z,10.70
2018-11-29T19:29:19.340Z,10.93
2018-11-29T19:31:21.324Z,10.30
2018-11-29T19:33:24.721Z,11.30
2018-11-29T19:35:26.719Z,9.07
2018-11-29T19:37:28.712Z,12.47
2018-11-29T19:39:30.704Z,9.50
2018-11-29T19:41:32.728Z,9.30
2018-11-29T19:43:34.720Z,10.77
2018-11-29T19:45:36.727Z,9.97
2018-11-29T19:47:39.039Z,9.50
2018-11-29T19:49:41.048Z,11.53
2018-11-29T19:51:43.040Z,11.07
2018-11-29T19:53:45.040Z,13.17
2018-11-29T19:55:47.896Z,9.13
2018-11-29T19:57:50.115Z,8.23
2018-11-29T19:59:52.476Z,7.60
2018-11-29T20:01:55.261Z,12.23
2018-11-29T20:03:57.266Z,9.43
2018-11-29T20:05:59.237Z,12.03
2018-11-29T20:08:01.231Z,9.87
2018-11-29T20:10:03.683Z,9.83
2018-11-29T20:12:05.679Z,7.00
2018-11-29T20:14:07.675Z,9.13
2018-11-29T20:16:09.655Z,7.00
2018-11-29T20:18:12.417Z,10.00
2018-11-29T20:20:14.417Z,10.03
2018-11-29T20:22:16.424Z,5.93
2018-11-29T20:24:18.415Z,12.37
2018-11-29T20:26:20.415Z,5.17
2018-11-29T20:28:22.391Z,7.03
2018-11-29T20:30:24.380Z,11.20
2018-11-29T20:32:26.371Z,10.53
2018-11-29T20:34:28.372Z,8.57
2018-11-29T20:36:30.360Z,8.70
2018-11-29T20:38:32.348Z,11.47
2018-11-29T20:40:36.119Z,4.87
2018-11-29T20:42:38.111Z,9.10
2018-11-29T20:44:40.103Z,6.57
2018-11-29T20:46:42.187Z,9.93
2018-11-29T20:48:45.072Z,8.03
2018-11-29T20:50:47.553Z,12.40
2018-11-29T20:52:50.528Z,6.80
2018-11-29T20:54:52.523Z,7.97
2018-11-29T20:56:55.286Z,7.00
2018-11-29T20:58:56.543Z,9.53
2018-11-29T21:00:58.558Z,6.83
2018-11-29T21:03:00.548Z,9.17
2018-11-29T21:05:02.549Z,9.93
2018-11-29T21:07:04.863Z,11.27
2018-11-29T21:09:09.276Z,12.30
2018-11-29T21:11:11.281Z,6.23
2018-11-29T21:13:13.276Z,10.97
2018-11-29T21:15:15.292Z,6.27
2018-11-29T21:17:17.285Z,10.07
2018-11-29T21:19:19.271Z,15.07
2018-11-29T21:21:21.264Z,10.00
2018-11-29T21:23:23.251Z,11.90
2018-11-29T21:25:25.363Z,7.50
2018-11-29T21:27:27.356Z,12.00
2018-11-29T21:29:29.368Z,10.77
2018-11-29T21:31:31.364Z,12.10
2018-11-29T21:33:33.355Z,10.70
2018-11-29T21:35:35.424Z,9.90
2018-11-29T21:37:37.516Z,10.97
2018-11-29T21:39:39.507Z,10.37
2018-11-29T21:41:41.501Z,13.33
2018-11-29T21:43:43.492Z,10.97
2018-11-29T21:45:45.484Z,14.23
2018-11-29T21:47:47.487Z,11.30
2018-11-29T21:49:49.476Z,12.50
2018-11-29T21:51:51.472Z,10.80
2018-11-29T21:53:53.528Z,11.40
2018-11-29T21:55:55.537Z,9.37
2018-11-29T21:57:57.531Z,13.13
2018-11-29T21:59:59.546Z,10.63
2018-11-29T22:02:01.531Z,11.03
2018-11-29T22:04:03.540Z,13.63
2018-11-29T22:06:05.540Z,10.87
2018-11-29T22:08:07.532Z,11.67
2018-11-29T22:10:09.545Z,12.17
2018-11-29T22:12:11.536Z,13.63
2018-11-29T22:14:13.532Z,13.57
2018-11-29T22:16:15.535Z,11.53
2018-11-29T22:18:19.760Z,11.33
2018-11-29T22:20:21.775Z,12.23
2018-11-29T22:22:23.796Z,11.40
2018-11-29T22:24:25.788Z,11.53
2018-11-29T22:26:27.780Z,9.93
2018-11-29T22:28:29.895Z,15.20
2018-11-29T22:30:31.887Z,9.00
2018-11-29T22:32:33.876Z,13.57
2018-11-29T22:34:35.868Z,10.73
2018-11-29T22:36:37.877Z,10.20
2018-11-29T22:38:39.864Z,14.87
2018-11-29T22:40:41.839Z,16.23
2018-11-29T22:42:43.835Z,16.00
2018-11-29T22:44:45.828Z,12.17
2018-11-29T22:46:47.857Z,11.70
2018-11-29T22:48:49.848Z,10.67
2018-11-29T22:50:51.852Z,12.27
2018-11-29T22:52:53.839Z,13.33
2018-11-29T22:54:55.858Z,12.40
2018-11-29T22:56:57.847Z,12.10
2018-11-29T22:58:59.843Z,17.30
2018-11-29T23:01:02.259Z,10.70
2018-11-29T23:03:04.272Z,12.57
2018-11-29T23:05:06.880Z,17.13
2018-11-29T23:07:08.871Z,14.70
2018-11-29T23:09:10.859Z,11.30
2018-11-29T23:11:12.856Z,14.63
2018-11-29T23:13:14.848Z,10.10
2018-11-29T23:15:16.844Z,12.10
2018-11-29T23:17:19.040Z,14.87
2018-11-29T23:19:21.040Z,13.33
2018-11-29T23:21:23.064Z,13.63
2018-11-29T23:23:25.059Z,16.93
2018-11-29T23:25:27.052Z,13.73
2018-11-29T23:27:29.052Z,16.03
2018-11-29T23:29:31.052Z,11.90
2018-11-29T23:31:33.065Z,11.37
2018-11-29T23:33:35.107Z,13.17
2018-11-29T23:35:37.101Z,14.63
2018-11-29T23:37:39.117Z,11.23
2018-11-29T23:39:41.164Z,14.23
2018-11-29T23:41:43.184Z,16.37
2018-11-29T23:43:45.183Z,15.87
2018-11-29T23:45:47.177Z,14.97
2018-11-29T23:47:49.200Z,17.80
2018-11-29T23:49:51.229Z,17.07
2018-11-29T23:51:53.220Z,12.90
2018-11-29T23:53:55.212Z,14.47
2018-11-29T23:55:57.199Z,13.70
2018-11-29T23:57:59.204Z,14.47
